sensor_id;sensor_type;location;lat;lon;timestamp;P1;durP1;ratioP1;P2;durP2;ratioP2
59418;SDS011;45224;50.904;6.038;2024-02-21T00:00:51;18.40;;;6.22;;
59418;SDS011;45224;50.904;6.038;2024-02-21T00:02:22;16.83;;;5.13;;
59418;SDS011;45224;50.904;6.038;2024-02-21T00:03:52;14.52;;;5.30;;
59418;SDS011;45224;50.904;6.038;2024-02-21T00:05:23;13.95;;;5.22;;
59418;SDS011;45224;50.904;6.038;2024-02-21T00:06:53;16.10;;;5.93;;
59418;SDS011;45224;50.904;6.038;2024-02-21T00:08:24;13.88;;;5.18;;
59418;SDS011;45224;50.904;6.038;2024-02-21T00:09:54;16.17;;;6.00;;
59418;SDS011;45224;50.904;6.038;2024-02-21T00:11:25;12.93;;;5.13;;
59418;SDS011;45224;50.904;6.038;2024-02-21T00:12:55;17.98;;;6.25;;
59418;SDS011;45224;50.904;6.038;2024-02-21T00:14:26;11.93;;;5.03;;
59418;SDS011;45224;50.904;6.038;2024-02-21T00:15:56;11.90;;;5.25;;
59418;SDS011;45224;50.904;6.038;2024-02-21T00:17:27;15.98;;;4.85;;
59418;SDS011;45224;50.904;6.038;2024-02-21T00:18:57;13.30;;;5.20;;
59418;SDS011;45224;50.904;6.038;2024-02-21T00:20:28;18.80;;;5.95;;
59418;SDS011;45224;50.904;6.038;2024-02-21T00:21:58;16.50;;;5.55;;
59418;SDS011;45224;50.904;6.038;2024-02-21T00:23:28;15.88;;;6.55;;
59418;SDS011;45224;50.904;6.038;2024-02-21T00:24:59;16.73;;;5.25;;
59418;SDS011;45224;50.904;6.038;2024-02-21T00:26:29;14.85;;;5.95;;
59418;SDS011;45224;50.904;6.038;2024-02-21T00:28:00;18.00;;;5.97;;
59418;SDS011;45224;50.904;6.038;2024-02-21T00:29:30;17.27;;;5.03;;
59418;SDS011;45224;50.904;6.038;2024-02-21T00:31:01;13.50;;;5.07;;
59418;SDS011;45224;50.904;6.038;2024-02-21T00:32:32;17.85;;;5.75;;
59418;SDS011;45224;50.904;6.038;2024-02-21T00:34:04;19.45;;;5.43;;
59418;SDS011;45224;50.904;6.038;2024-02-21T00:35:34;14.07;;;5.20;;
59418;SDS011;45224;50.904;6.038;2024-02-21T00:37:05;14.13;;;5.07;;
59418;SDS011;45224;50.904;6.038;2024-02-21T00:38:35;12.55;;;5.22;;
59418;SDS011;45224;50.904;6.038;2024-02-21T00:40:06;11.75;;;5.28;;
59418;SDS011;45224;50.904;6.038;2024-02-21T00:41:37;12.13;;;5.10;;
59418;SDS011;45224;50.904;6.038;2024-02-21T00:43:07;17.15;;;6.28;;
59418;SDS011;45224;50.904;6.038;2024-02-21T00:44:38;18.95;;;5.30;;
59418;SDS011;45224;50.904;6.038;2024-02-21T00:46:08;11.73;;;5.07;;
59418;SDS011;45224;50.904;6.038;2024-02-21T00:47:39;14.75;;;4.82;;
59418;SDS011;45224;50.904;6.038;2024-02-21T00:49:09;14.02;;;5.63;;
59418;SDS011;45224;50.904;6.038;2024-02-21T00:50:40;14.43;;;5.38;;
59418;SDS011;45224;50.904;6.038;2024-02-21T00:52:10;16.40;;;5.70;;
59418;SDS011;45224;50.904;6.038;2024-02-21T00:53:41;12.70;;;4.88;;
59418;SDS011;45224;50.904;6.038;2024-02-21T00:55:12;12.45;;;5.45;;
59418;SDS011;45224;50.904;6.038;2024-02-21T00:56:42;12.93;;;5.63;;
59418;SDS011;45224;50.904;6.038;2024-02-21T00:58:13;13.23;;;4.88;;
59418;SDS011;45224;50.904;6.038;2024-02-21T00:59:43;14.77;;;5.10;;
59418;SDS011;45224;50.904;6.038;2024-02-21T01:01:20;17.45;;;5.55;;
59418;SDS011;45224;50.904;6.038;2024-02-21T01:02:52;17.55;;;6.03;;
59418;SDS011;45224;50.904;6.038;2024-02-21T01:04:23;11.43;;;4.82;;
59418;SDS011;45224;50.904;6.038;2024-02-21T01:05:54;13.98;;;5.18;;
59418;SDS011;45224;50.904;6.038;2024-02-21T01:07:25;13.23;;;5.43;;
59418;SDS011;45224;50.904;6.038;2024-02-21T01:08:55;14.50;;;5.22;;
59418;SDS011;45224;50.904;6.038;2024-02-21T01:10:26;15.80;;;5.70;;
59418;SDS011;45224;50.904;6.038;2024-02-21T01:11:56;13.27;;;4.95;;
59418;SDS011;45224;50.904;6.038;2024-02-21T01:13:27;16.15;;;5.32;;
59418;SDS011;45224;50.904;6.038;2024-02-21T01:14:57;17.27;;;5.65;;
59418;SDS011;45224;50.904;6.038;2024-02-21T01:16:28;18.52;;;5.82;;
59418;SDS011;45224;50.904;6.038;2024-02-21T01:17:58;16.42;;;5.43;;
59418;SDS011;45224;50.904;6.038;2024-02-21T01:19:29;13.65;;;5.90;;
59418;SDS011;45224;50.904;6.038;2024-02-21T01:20:59;14.13;;;5.38;;
59418;SDS011;45224;50.904;6.038;2024-02-21T01:22:29;14.48;;;5.82;;
59418;SDS011;45224;50.904;6.038;2024-02-21T01:24:00;13.55;;;5.05;;
59418;SDS011;45224;50.904;6.038;2024-02-21T01:25:30;12.63;;;5.88;;
59418;SDS011;45224;50.904;6.038;2024-02-21T01:27:01;14.43;;;5.35;;
59418;SDS011;45224;50.904;6.038;2024-02-21T01:28:31;15.80;;;5.20;;
59418;SDS011;45224;50.904;6.038;2024-02-21T01:30:02;13.50;;;5.85;;
59418;SDS011;45224;50.904;6.038;2024-02-21T01:31:32;15.10;;;5.40;;
59418;SDS011;45224;50.904;6.038;2024-02-21T01:33:03;17.05;;;6.57;;
59418;SDS011;45224;50.904;6.038;2024-02-21T01:34:34;13.52;;;5.10;;
59418;SDS011;45224;50.904;6.038;2024-02-21T01:36:04;12.02;;;4.80;;
59418;SDS011;45224;50.904;6.038;2024-02-21T01:37:36;15.75;;;5.90;;
59418;SDS011;45224;50.904;6.038;2024-02-21T01:39:07;12.20;;;5.63;;
59418;SDS011;45224;50.904;6.038;2024-02-21T01:40:37;14.35;;;5.35;;
59418;SDS011;45224;50.904;6.038;2024-02-21T01:42:08;19.83;;;5.95;;
59418;SDS011;45224;50.904;6.038;2024-02-21T01:43:39;14.32;;;5.28;;
59418;SDS011;45224;50.904;6.038;2024-02-21T01:45:09;14.93;;;5.63;;
59418;SDS011;45224;50.904;6.038;2024-02-21T01:46:40;14.02;;;5.25;;
59418;SDS011;45224;50.904;6.038;2024-02-21T01:48:11;11.45;;;4.80;;
59418;SDS011;45224;50.904;6.038;2024-02-21T01:49:41;15.00;;;6.22;;
59418;SDS011;45224;50.904;6.038;2024-02-21T01:51:13;16.13;;;5.40;;
59418;SDS011;45224;50.904;6.038;2024-02-21T01:52:43;15.38;;;6.22;;
59418;SDS011;45224;50.904;6.038;2024-02-21T01:54:18;14.73;;;5.07;;
59418;SDS011;45224;50.904;6.038;2024-02-21T01:55:49;14.15;;;5.90;;
59418;SDS011;45224;50.904;6.038;2024-02-21T01:57:19;12.27;;;4.97;;
59418;SDS011;45224;50.904;6.038;2024-02-21T01:58:50;17.75;;;6.32;;
59418;SDS011;45224;50.904;6.038;2024-02-21T02:00:21;13.32;;;5.28;;
59418;SDS011;45224;50.904;6.038;2024-02-21T02:01:53;13.05;;;4.93;;
59418;SDS011;45224;50.904;6.038;2024-02-21T02:03:25;16.25;;;5.43;;
59418;SDS011;45224;50.904;6.038;2024-02-21T02:04:56;12.70;;;5.25;;
59418;SDS011;45224;50.904;6.038;2024-02-21T02:06:27;10.32;;;4.70;;
59418;SDS011;45224;50.904;6.038;2024-02-21T02:07:58;13.07;;;5.15;;
59418;SDS011;45224;50.904;6.038;2024-02-21T02:09:28;11.38;;;4.80;;
59418;SDS011;45224;50.904;6.038;2024-02-21T02:10:59;15.65;;;4.93;;
59418;SDS011;45224;50.904;6.038;2024-02-21T02:12:30;11.93;;;4.82;;
59418;SDS011;45224;50.904;6.038;2024-02-21T02:14:00;14.45;;;4.55;;
59418;SDS011;45224;50.904;6.038;2024-02-21T02:15:52;14.63;;;4.97;;
59418;SDS011;45224;50.904;6.038;2024-02-21T02:17:21;11.80;;;4.85;;
59418;SDS011;45224;50.904;6.038;2024-02-21T02:18:52;13.88;;;5.13;;
59418;SDS011;45224;50.904;6.038;2024-02-21T02:20:22;13.95;;;5.55;;
59418;SDS011;45224;50.904;6.038;2024-02-21T02:21:59;13.85;;;5.05;;
59418;SDS011;45224;50.904;6.038;2024-02-21T02:23:34;16.70;;;5.07;;
59418;SDS011;45224;50.904;6.038;2024-02-21T02:25:04;15.52;;;4.80;;
59418;SDS011;45224;50.904;6.038;2024-02-21T02:26:35;14.93;;;5.18;;
59418;SDS011;45224;50.904;6.038;2024-02-21T02:28:06;12.10;;;5.03;;
59418;SDS011;45224;50.904;6.038;2024-02-21T02:29:37;14.52;;;4.50;;
59418;SDS011;45224;50.904;6.038;2024-02-21T02:31:07;10.85;;;4.53;;
59418;SDS011;45224;50.904;6.038;2024-02-21T02:32:38;9.32;;;4.63;;
59418;SDS011;45224;50.904;6.038;2024-02-21T02:34:08;12.40;;;4.72;;
59418;SDS011;45224;50.904;6.038;2024-02-21T02:35:39;11.73;;;4.38;;
59418;SDS011;45224;50.904;6.038;2024-02-21T02:37:10;9.18;;;4.80;;
59418;SDS011;45224;50.904;6.038;2024-02-21T02:38:40;13.80;;;4.95;;
59418;SDS011;45224;50.904;6.038;2024-02-21T02:40:11;13.55;;;4.93;;
59418;SDS011;45224;50.904;6.038;2024-02-21T02:41:42;11.75;;;4.93;;
59418;SDS011;45224;50.904;6.038;2024-02-21T02:43:13;9.85;;;4.68;;
59418;SDS011;45224;50.904;6.038;2024-02-21T02:44:43;16.25;;;6.05;;
59418;SDS011;45224;50.904;6.038;2024-02-21T02:46:14;14.48;;;4.78;;
59418;SDS011;45224;50.904;6.038;2024-02-21T02:47:45;15.60;;;5.70;;
59418;SDS011;45224;50.904;6.038;2024-02-21T02:49:18;13.50;;;4.80;;
59418;SDS011;45224;50.904;6.038;2024-02-21T02:50:48;9.48;;;4.43;;
59418;SDS011;45224;50.904;6.038;2024-02-21T02:52:19;12.43;;;4.93;;
59418;SDS011;45224;50.904;6.038;2024-02-21T02:53:50;17.52;;;5.32;;
59418;SDS011;45224;50.904;6.038;2024-02-21T02:55:20;11.35;;;4.50;;
59418;SDS011;45224;50.904;6.038;2024-02-21T02:56:51;15.32;;;4.60;;
59418;SDS011;45224;50.904;6.038;2024-02-21T02:58:22;11.60;;;4.35;;
59418;SDS011;45224;50.904;6.038;2024-02-21T02:59:53;10.85;;;4.03;;
59418;SDS011;45224;50.904;6.038;2024-02-21T03:01:23;14.18;;;4.47;;
59418;SDS011;45224;50.904;6.038;2024-02-21T03:02:54;10.07;;;4.20;;
59418;SDS011;45224;50.904;6.038;2024-02-21T03:04:24;11.60;;;4.70;;
59418;SDS011;45224;50.904;6.038;2024-02-21T03:05:55;15.13;;;4.60;;
59418;SDS011;45224;50.904;6.038;2024-02-21T03:07:25;14.13;;;4.53;;
59418;SDS011;45224;50.904;6.038;2024-02-21T03:08:56;10.88;;;4.00;;
59418;SDS011;45224;50.904;6.038;2024-02-21T03:10:26;13.32;;;3.92;;
59418;SDS011;45224;50.904;6.038;2024-02-21T03:11:57;10.98;;;4.85;;
59418;SDS011;45224;50.904;6.038;2024-02-21T03:13:32;15.52;;;5.28;;
59418;SDS011;45224;50.904;6.038;2024-02-21T03:15:03;14.48;;;4.53;;
59418;SDS011;45224;50.904;6.038;2024-02-21T03:16:34;11.60;;;4.75;;
59418;SDS011;45224;50.904;6.038;2024-02-21T03:18:05;14.52;;;4.53;;
59418;SDS011;45224;50.904;6.038;2024-02-21T03:19:35;17.48;;;5.18;;
59418;SDS011;45224;50.904;6.038;2024-02-21T03:21:06;11.10;;;4.32;;
59418;SDS011;45224;50.904;6.038;2024-02-21T03:22:37;12.52;;;4.70;;
59418;SDS011;45224;50.904;6.038;2024-02-21T03:24:07;11.07;;;4.53;;
59418;SDS011;45224;50.904;6.038;2024-02-21T03:25:38;15.45;;;4.93;;
59418;SDS011;45224;50.904;6.038;2024-02-21T03:27:08;10.13;;;4.32;;
59418;SDS011;45224;50.904;6.038;2024-02-21T03:28:39;14.68;;;4.40;;
59418;SDS011;45224;50.904;6.038;2024-02-21T03:30:09;11.68;;;4.45;;
59418;SDS011;45224;50.904;6.038;2024-02-21T03:31:40;18.92;;;5.35;;
59418;SDS011;45224;50.904;6.038;2024-02-21T03:33:11;11.25;;;4.20;;
59418;SDS011;45224;50.904;6.038;2024-02-21T03:34:41;11.55;;;4.65;;
59418;SDS011;45224;50.904;6.038;2024-02-21T03:36:15;13.88;;;4.55;;
59418;SDS011;45224;50.904;6.038;2024-02-21T03:37:45;10.70;;;4.85;;
59418;SDS011;45224;50.904;6.038;2024-02-21T03:39:16;14.32;;;5.18;;
59418;SDS011;45224;50.904;6.038;2024-02-21T03:40:46;15.20;;;4.70;;
59418;SDS011;45224;50.904;6.038;2024-02-21T03:42:17;10.07;;;4.72;;
59418;SDS011;45224;50.904;6.038;2024-02-21T03:43:47;13.02;;;4.63;;
59418;SDS011;45224;50.904;6.038;2024-02-21T03:45:18;13.50;;;4.57;;
59418;SDS011;45224;50.904;6.038;2024-02-21T03:46:48;11.02;;;4.68;;
59418;SDS011;45224;50.904;6.038;2024-02-21T03:48:19;10.65;;;4.88;;
59418;SDS011;45224;50.904;6.038;2024-02-21T03:49:49;13.95;;;4.85;;
59418;SDS011;45224;50.904;6.038;2024-02-21T03:51:20;13.98;;;4.53;;
59418;SDS011;45224;50.904;6.038;2024-02-21T03:52:50;10.65;;;4.38;;
59418;SDS011;45224;50.904;6.038;2024-02-21T03:54:21;16.65;;;5.60;;
59418;SDS011;45224;50.904;6.038;2024-02-21T03:55:51;12.80;;;4.40;;
59418;SDS011;45224;50.904;6.038;2024-02-21T03:57:22;13.68;;;4.50;;
59418;SDS011;45224;50.904;6.038;2024-02-21T03:58:52;9.98;;;4.30;;
59418;SDS011;45224;50.904;6.038;2024-02-21T04:00:23;11.57;;;4.57;;
59418;SDS011;45224;50.904;6.038;2024-02-21T04:01:53;12.18;;;4.97;;
59418;SDS011;45224;50.904;6.038;2024-02-21T04:03:24;14.40;;;4.43;;
59418;SDS011;45224;50.904;6.038;2024-02-21T04:04:54;12.25;;;4.32;;
59418;SDS011;45224;50.904;6.038;2024-02-21T04:06:25;12.23;;;4.40;;
59418;SDS011;45224;50.904;6.038;2024-02-21T04:07:55;10.07;;;4.57;;
59418;SDS011;45224;50.904;6.038;2024-02-21T04:09:26;10.30;;;4.30;;
59418;SDS011;45224;50.904;6.038;2024-02-21T04:10:56;11.23;;;4.65;;
59418;SDS011;45224;50.904;6.038;2024-02-21T04:12:27;12.35;;;4.88;;
59418;SDS011;45224;50.904;6.038;2024-02-21T04:13:57;11.00;;;4.70;;
59418;SDS011;45224;50.904;6.038;2024-02-21T04:15:27;9.10;;;4.22;;
59418;SDS011;45224;50.904;6.038;2024-02-21T04:16:58;11.30;;;4.40;;
59418;SDS011;45224;50.904;6.038;2024-02-21T04:18:28;11.88;;;4.45;;
59418;SDS011;45224;50.904;6.038;2024-02-21T04:20:03;11.43;;;4.45;;
59418;SDS011;45224;50.904;6.038;2024-02-21T04:21:38;10.77;;;4.35;;
59418;SDS011;45224;50.904;6.038;2024-02-21T04:23:09;9.70;;;4.35;;
59418;SDS011;45224;50.904;6.038;2024-02-21T04:24:39;14.90;;;4.93;;
59418;SDS011;45224;50.904;6.038;2024-02-21T04:26:10;10.68;;;4.75;;
59418;SDS011;45224;50.904;6.038;2024-02-21T04:27:40;10.70;;;4.28;;
59418;SDS011;45224;50.904;6.038;2024-02-21T04:29:11;12.95;;;4.75;;
59418;SDS011;45224;50.904;6.038;2024-02-21T04:30:42;11.57;;;4.30;;
59418;SDS011;45224;50.904;6.038;2024-02-21T04:32:12;12.27;;;4.75;;
59418;SDS011;45224;50.904;6.038;2024-02-21T04:33:43;8.60;;;4.07;;
59418;SDS011;45224;50.904;6.038;2024-02-21T04:35:13;9.45;;;4.28;;
59418;SDS011;45224;50.904;6.038;2024-02-21T04:36:44;10.68;;;4.55;;
59418;SDS011;45224;50.904;6.038;2024-02-21T04:38:15;13.40;;;4.40;;
59418;SDS011;45224;50.904;6.038;2024-02-21T04:39:45;16.83;;;5.53;;
59418;SDS011;45224;50.904;6.038;2024-02-21T04:41:15;11.82;;;4.35;;
59418;SDS011;45224;50.904;6.038;2024-02-21T04:42:46;12.43;;;4.60;;
59418;SDS011;45224;50.904;6.038;2024-02-21T04:44:16;9.60;;;4.00;;
59418;SDS011;45224;50.904;6.038;2024-02-21T04:45:47;9.18;;;3.97;;
59418;SDS011;45224;50.904;6.038;2024-02-21T04:47:17;12.07;;;4.45;;
59418;SDS011;45224;50.904;6.038;2024-02-21T04:48:49;15.65;;;4.43;;
59418;SDS011;45224;50.904;6.038;2024-02-21T04:50:20;12.63;;;4.90;;
59418;SDS011;45224;50.904;6.038;2024-02-21T04:51:50;10.88;;;3.80;;
59418;SDS011;45224;50.904;6.038;2024-02-21T04:53:21;11.98;;;3.90;;
59418;SDS011;45224;50.904;6.038;2024-02-21T04:54:51;10.32;;;4.18;;
59418;SDS011;45224;50.904;6.038;2024-02-21T04:56:22;17.17;;;4.95;;
59418;SDS011;45224;50.904;6.038;2024-02-21T04:57:52;8.30;;;3.67;;
59418;SDS011;45224;50.904;6.038;2024-02-21T04:59:23;11.40;;;3.80;;
59418;SDS011;45224;50.904;6.038;2024-02-21T05:00:53;15.35;;;4.63;;
59418;SDS011;45224;50.904;6.038;2024-02-21T05:02:24;13.20;;;4.40;;
59418;SDS011;45224;50.904;6.038;2024-02-21T05:03:56;11.43;;;3.78;;
59418;SDS011;45224;50.904;6.038;2024-02-21T05:05:26;13.43;;;4.13;;
59418;SDS011;45224;50.904;6.038;2024-02-21T05:06:57;10.43;;;4.22;;
59418;SDS011;45224;50.904;6.038;2024-02-21T05:08:27;12.65;;;4.25;;
59418;SDS011;45224;50.904;6.038;2024-02-21T05:09:58;8.60;;;3.70;;
59418;SDS011;45224;50.904;6.038;2024-02-21T05:11:28;10.85;;;4.00;;
59418;SDS011;45224;50.904;6.038;2024-02-21T05:12:59;10.55;;;3.60;;
59418;SDS011;45224;50.904;6.038;2024-02-21T05:14:29;7.93;;;3.40;;
59418;SDS011;45224;50.904;6.038;2024-02-21T05:15:59;9.57;;;3.78;;
59418;SDS011;45224;50.904;6.038;2024-02-21T05:17:31;10.38;;;3.80;;
59418;SDS011;45224;50.904;6.038;2024-02-21T05:19:02;8.15;;;3.25;;
59418;SDS011;45224;50.904;6.038;2024-02-21T05:20:34;12.25;;;3.88;;
59418;SDS011;45224;50.904;6.038;2024-02-21T05:22:04;10.98;;;3.13;;
59418;SDS011;45224;50.904;6.038;2024-02-21T05:23:35;8.75;;;3.22;;
59418;SDS011;45224;50.904;6.038;2024-02-21T05:25:06;8.95;;;3.50;;
59418;SDS011;45224;50.904;6.038;2024-02-21T05:26:36;6.90;;;3.55;;
59418;SDS011;45224;50.904;6.038;2024-02-21T05:28:07;8.85;;;3.35;;
59418;SDS011;45224;50.904;6.038;2024-02-21T05:29:38;9.52;;;3.20;;
59418;SDS011;45224;50.904;6.038;2024-02-21T05:31:08;9.07;;;3.60;;
59418;SDS011;45224;50.904;6.038;2024-02-21T05:32:38;10.73;;;3.67;;
59418;SDS011;45224;50.904;6.038;2024-02-21T05:34:09;10.45;;;3.80;;
59418;SDS011;45224;50.904;6.038;2024-02-21T05:35:41;9.85;;;3.42;;
59418;SDS011;45224;50.904;6.038;2024-02-21T05:37:11;11.18;;;3.40;;
59418;SDS011;45224;50.904;6.038;2024-02-21T05:38:42;7.63;;;3.08;;
59418;SDS011;45224;50.904;6.038;2024-02-21T05:40:12;10.07;;;3.60;;
59418;SDS011;45224;50.904;6.038;2024-02-21T05:41:43;10.63;;;3.50;;
59418;SDS011;45224;50.904;6.038;2024-02-21T05:43:14;7.45;;;3.40;;
59418;SDS011;45224;50.904;6.038;2024-02-21T05:44:44;6.32;;;2.92;;
59418;SDS011;45224;50.904;6.038;2024-02-21T05:46:18;9.57;;;3.20;;
59418;SDS011;45224;50.904;6.038;2024-02-21T05:47:49;9.90;;;3.75;;
59418;SDS011;45224;50.904;6.038;2024-02-21T05:49:20;9.82;;;3.40;;
59418;SDS011;45224;50.904;6.038;2024-02-21T05:50:50;11.77;;;3.50;;
59418;SDS011;45224;50.904;6.038;2024-02-21T05:52:21;14.50;;;3.67;;
59418;SDS011;45224;50.904;6.038;2024-02-21T05:53:52;8.63;;;3.13;;
59418;SDS011;45224;50.904;6.038;2024-02-21T05:55:22;9.13;;;3.03;;
59418;SDS011;45224;50.904;6.038;2024-02-21T05:56:53;8.75;;;3.50;;
59418;SDS011;45224;50.904;6.038;2024-02-21T05:58:23;11.52;;;3.58;;
59418;SDS011;45224;50.904;6.038;2024-02-21T05:59:54;12.25;;;3.83;;
59418;SDS011;45224;50.904;6.038;2024-02-21T06:01:24;10.73;;;3.88;;
59418;SDS011;45224;50.904;6.038;2024-02-21T06:02:55;13.10;;;3.88;;
59418;SDS011;45224;50.904;6.038;2024-02-21T06:04:25;12.15;;;3.70;;
59418;SDS011;45224;50.904;6.038;2024-02-21T06:05:56;10.00;;;3.47;;
59418;SDS011;45224;50.904;6.038;2024-02-21T06:07:26;11.38;;;3.50;;
59418;SDS011;45224;50.904;6.038;2024-02-21T06:08:57;7.80;;;3.75;;
59418;SDS011;45224;50.904;6.038;2024-02-21T06:10:28;11.30;;;3.67;;
59418;SDS011;45224;50.904;6.038;2024-02-21T06:11:59;10.98;;;3.20;;
59418;SDS011;45224;50.904;6.038;2024-02-21T06:13:29;11.43;;;3.45;;
59418;SDS011;45224;50.904;6.038;2024-02-21T06:15:00;9.57;;;3.38;;
59418;SDS011;45224;50.904;6.038;2024-02-21T06:16:30;13.95;;;3.60;;
59418;SDS011;45224;50.904;6.038;2024-02-21T06:18:01;15.48;;;3.88;;
59418;SDS011;45224;50.904;6.038;2024-02-21T06:19:31;14.70;;;4.57;;
59418;SDS011;45224;50.904;6.038;2024-02-21T06:21:02;11.38;;;3.78;;
59418;SDS011;45224;50.904;6.038;2024-02-21T06:22:32;10.40;;;3.88;;
59418;SDS011;45224;50.904;6.038;2024-02-21T06:24:03;9.95;;;3.33;;
59418;SDS011;45224;50.904;6.038;2024-02-21T06:25:34;12.23;;;3.50;;
59418;SDS011;45224;50.904;6.038;2024-02-21T06:27:05;12.68;;;3.78;;
59418;SDS011;45224;50.904;6.038;2024-02-21T06:28:38;12.40;;;3.53;;
59418;SDS011;45224;50.904;6.038;2024-02-21T06:30:09;8.13;;;3.22;;
59418;SDS011;45224;50.904;6.038;2024-02-21T06:31:40;10.48;;;3.05;;
59418;SDS011;45224;50.904;6.038;2024-02-21T06:33:10;11.65;;;3.53;;
59418;SDS011;45224;50.904;6.038;2024-02-21T06:34:41;11.45;;;3.17;;
59418;SDS011;45224;50.904;6.038;2024-02-21T06:36:11;5.63;;;2.70;;
59418;SDS011;45224;50.904;6.038;2024-02-21T06:37:42;10.25;;;3.05;;
59418;SDS011;45224;50.904;6.038;2024-02-21T06:39:12;11.20;;;3.25;;
59418;SDS011;45224;50.904;6.038;2024-02-21T06:40:43;6.95;;;2.75;;
59418;SDS011;45224;50.904;6.038;2024-02-21T06:42:19;7.88;;;3.00;;
59418;SDS011;45224;50.904;6.038;2024-02-21T06:43:50;11.23;;;3.08;;
59418;SDS011;45224;50.904;6.038;2024-02-21T06:45:20;12.18;;;2.97;;
59418;SDS011;45224;50.904;6.038;2024-02-21T06:46:51;13.88;;;3.38;;
59418;SDS011;45224;50.904;6.038;2024-02-21T06:48:21;9.40;;;3.25;;
59418;SDS011;45224;50.904;6.038;2024-02-21T06:49:52;9.65;;;2.78;;
59418;SDS011;45224;50.904;6.038;2024-02-21T06:51:23;10.60;;;2.97;;
59418;SDS011;45224;50.904;6.038;2024-02-21T06:52:53;10.57;;;3.10;;
59418;SDS011;45224;50.904;6.038;2024-02-21T06:54:24;7.82;;;2.90;;
59418;SDS011;45224;50.904;6.038;2024-02-21T06:55:54;11.60;;;3.92;;
59418;SDS011;45224;50.904;6.038;2024-02-21T06:57:24;8.43;;;3.20;;
59418;SDS011;45224;50.904;6.038;2024-02-21T06:58:55;8.85;;;2.88;;
59418;SDS011;45224;50.904;6.038;2024-02-21T07:00:26;11.52;;;3.22;;
59418;SDS011;45224;50.904;6.038;2024-02-21T07:01:56;9.32;;;3.25;;
59418;SDS011;45224;50.904;6.038;2024-02-21T07:03:27;8.50;;;3.03;;
59418;SDS011;45224;50.904;6.038;2024-02-21T07:04:57;8.52;;;2.80;;
59418;SDS011;45224;50.904;6.038;2024-02-21T07:06:28;9.23;;;3.10;;
59418;SDS011;45224;50.904;6.038;2024-02-21T07:07:58;8.95;;;3.05;;
59418;SDS011;45224;50.904;6.038;2024-02-21T07:09:29;7.63;;;3.00;;
59418;SDS011;45224;50.904;6.038;2024-02-21T07:11:01;8.07;;;3.00;;
59418;SDS011;45224;50.904;6.038;2024-02-21T07:12:32;3.97;;;2.53;;
59418;SDS011;45224;50.904;6.038;2024-02-21T07:14:02;8.65;;;3.10;;
59418;SDS011;45224;50.904;6.038;2024-02-21T07:15:33;9.88;;;3.58;;
59418;SDS011;45224;50.904;6.038;2024-02-21T07:17:03;9.80;;;2.83;;
59418;SDS011;45224;50.904;6.038;2024-02-21T07:18:34;9.63;;;3.50;;
59418;SDS011;45224;50.904;6.038;2024-02-21T07:20:05;13.13;;;3.33;;
59418;SDS011;45224;50.904;6.038;2024-02-21T07:21:36;7.25;;;3.15;;
59418;SDS011;45224;50.904;6.038;2024-02-21T07:23:08;10.25;;;2.88;;
59418;SDS011;45224;50.904;6.038;2024-02-21T07:24:38;6.20;;;3.13;;
59418;SDS011;45224;50.904;6.038;2024-02-21T07:26:09;11.32;;;3.47;;
59418;SDS011;45224;50.904;6.038;2024-02-21T07:27:39;7.97;;;3.38;;
59418;SDS011;45224;50.904;6.038;2024-02-21T07:29:10;12.05;;;3.83;;
59418;SDS011;45224;50.904;6.038;2024-02-21T07:30:41;10.18;;;3.38;;
59418;SDS011;45224;50.904;6.038;2024-02-21T07:32:12;9.13;;;3.15;;
59418;SDS011;45224;50.904;6.038;2024-02-21T07:33:42;9.18;;;3.60;;
59418;SDS011;45224;50.904;6.038;2024-02-21T07:35:13;9.32;;;3.40;;
59418;SDS011;45224;50.904;6.038;2024-02-21T07:36:43;7.07;;;3.20;;
59418;SDS011;45224;50.904;6.038;2024-02-21T07:38:14;8.23;;;3.13;;
59418;SDS011;45224;50.904;6.038;2024-02-21T07:39:45;8.93;;;3.30;;
59418;SDS011;45224;50.904;6.038;2024-02-21T07:41:15;7.88;;;3.28;;
59418;SDS011;45224;50.904;6.038;2024-02-21T07:42:46;10.07;;;3.40;;
59418;SDS011;45224;50.904;6.038;2024-02-21T07:44:16;9.00;;;3.35;;
59418;SDS011;45224;50.904;6.038;2024-02-21T07:45:47;7.93;;;2.92;;
59418;SDS011;45224;50.904;6.038;2024-02-21T07:47:17;7.80;;;3.40;;
59418;SDS011;45224;50.904;6.038;2024-02-21T07:48:50;9.45;;;3.83;;
59418;SDS011;45224;50.904;6.038;2024-02-21T07:50:21;9.93;;;3.25;;
59418;SDS011;45224;50.904;6.038;2024-02-21T07:51:51;8.10;;;3.10;;
59418;SDS011;45224;50.904;6.038;2024-02-21T07:53:22;9.30;;;3.65;;
59418;SDS011;45224;50.904;6.038;2024-02-21T07:54:53;7.78;;;3.10;;
59418;SDS011;45224;50.904;6.038;2024-02-21T07:56:27;10.65;;;3.25;;
59418;SDS011;45224;50.904;6.038;2024-02-21T07:57:57;8.90;;;2.97;;
59418;SDS011;45224;50.904;6.038;2024-02-21T07:59:29;8.73;;;3.20;;
59418;SDS011;45224;50.904;6.038;2024-02-21T08:01:00;8.25;;;3.20;;
59418;SDS011;45224;50.904;6.038;2024-02-21T08:02:30;6.55;;;2.80;;
59418;SDS011;45224;50.904;6.038;2024-02-21T08:04:01;12.52;;;3.55;;
59418;SDS011;45224;50.904;6.038;2024-02-21T08:05:34;12.20;;;3.28;;
59418;SDS011;45224;50.904;6.038;2024-02-21T08:07:05;10.63;;;3.35;;
59418;SDS011;45224;50.904;6.038;2024-02-21T08:08:35;8.55;;;3.28;;
59418;SDS011;45224;50.904;6.038;2024-02-21T08:10:06;10.27;;;3.33;;
59418;SDS011;45224;50.904;6.038;2024-02-21T08:11:38;13.00;;;3.38;;
59418;SDS011;45224;50.904;6.038;2024-02-21T08:13:09;9.05;;;3.25;;
59418;SDS011;45224;50.904;6.038;2024-02-21T08:14:39;7.82;;;2.83;;
59418;SDS011;45224;50.904;6.038;2024-02-21T08:16:10;8.23;;;2.78;;
59418;SDS011;45224;50.904;6.038;2024-02-21T08:17:40;9.13;;;3.20;;
59418;SDS011;45224;50.904;6.038;2024-02-21T08:19:11;8.73;;;2.92;;
59418;SDS011;45224;50.904;6.038;2024-02-21T08:20:41;9.07;;;2.97;;
59418;SDS011;45224;50.904;6.038;2024-02-21T08:22:12;5.60;;;2.78;;
59418;SDS011;45224;50.904;6.038;2024-02-21T08:23:42;6.75;;;2.63;;
59418;SDS011;45224;50.904;6.038;2024-02-21T08:25:13;5.15;;;2.40;;
59418;SDS011;45224;50.904;6.038;2024-02-21T08:26:44;8.32;;;2.60;;
59418;SDS011;45224;50.904;6.038;2024-02-21T08:28:14;9.88;;;2.67;;
59418;SDS011;45224;50.904;6.038;2024-02-21T08:29:45;9.35;;;2.83;;
59418;SDS011;45224;50.904;6.038;2024-02-21T08:31:19;8.20;;;2.33;;
59418;SDS011;45224;50.904;6.038;2024-02-21T08:32:50;6.47;;;2.80;;
59418;SDS011;45224;50.904;6.038;2024-02-21T08:34:20;7.18;;;2.20;;
59418;SDS011;45224;50.904;6.038;2024-02-21T08:35:51;8.77;;;2.30;;
59418;SDS011;45224;50.904;6.038;2024-02-21T08:37:22;8.60;;;2.78;;
59418;SDS011;45224;50.904;6.038;2024-02-21T08:38:52;6.70;;;2.47;;
59418;SDS011;45224;50.904;6.038;2024-02-21T08:40:23;9.35;;;3.47;;
59418;SDS011;45224;50.904;6.038;2024-02-21T08:41:53;9.80;;;3.10;;
59418;SDS011;45224;50.904;6.038;2024-02-21T08:43:24;7.45;;;2.80;;
59418;SDS011;45224;50.904;6.038;2024-02-21T08:44:54;10.00;;;2.35;;
59418;SDS011;45224;50.904;6.038;2024-02-21T08:46:25;5.28;;;2.33;;
59418;SDS011;45224;50.904;6.038;2024-02-21T08:47:56;7.40;;;2.45;;
59418;SDS011;45224;50.904;6.038;2024-02-21T08:49:27;8.07;;;2.30;;
59418;SDS011;45224;50.904;6.038;2024-02-21T08:50:58;8.65;;;2.80;;
59418;SDS011;45224;50.904;6.038;2024-02-21T08:52:29;5.65;;;2.30;;
59418;SDS011;45224;50.904;6.038;2024-02-21T08:53:59;5.57;;;2.20;;
59418;SDS011;45224;50.904;6.038;2024-02-21T08:55:31;8.50;;;2.40;;
59418;SDS011;45224;50.904;6.038;2024-02-21T08:57:01;7.90;;;2.50;;
59418;SDS011;45224;50.904;6.038;2024-02-21T08:58:34;9.77;;;2.78;;
59418;SDS011;45224;50.904;6.038;2024-02-21T09:00:07;4.82;;;2.08;;
59418;SDS011;45224;50.904;6.038;2024-02-21T09:03:10;6.65;;;1.88;;